sensor_id;sensor_type;location;lat;lon;timestamp;pressure;altitude;pressure_sealevel;temperature;humidity
24234;BME280;12365;43.554;1.388;2023-12-20T00:02:04;101005.84;;;9.68;64.66
24234;BME280;12365;43.554;1.388;2023-12-20T00:04:29;101000.75;;;9.70;64.78
24234;BME280;12365;43.554;1.388;2023-12-20T00:06:54;100987.72;;;9.70;64.76
24234;BME280;12365;43.554;1.388;2023-12-20T00:09:20;100988.63;;;9.70;64.73
24234;BME280;12365;43.554;1.388;2023-12-20T00:11:45;100986.91;;;9.71;64.88
24234;BME280;12365;43.554;1.388;2023-12-20T00:14:11;100983.50;;;9.72;64.79
24234;BME280;12365;43.554;1.388;2023-12-20T00:16:36;100988.84;;;9.73;65.06
24234;BME280;12365;43.554;1.388;2023-12-20T00:19:02;100974.09;;;9.74;64.97
24234;BME280;12365;43.554;1.388;2023-12-20T00:21:27;100982.94;;;9.76;64.90
24234;BME280;12365;43.554;1.388;2023-12-20T00:23:52;100978.63;;;9.76;64.73
24234;BME280;12365;43.554;1.388;2023-12-20T00:26:18;100969.91;;;9.76;64.64
24234;BME280;12365;43.554;1.388;2023-12-20T00:28:43;100959.59;;;9.77;64.83
24234;BME280;12365;43.554;1.388;2023-12-20T00:31:09;100953.59;;;9.79;65.03
24234;BME280;12365;43.554;1.388;2023-12-20T00:33:34;100946.66;;;9.79;64.87
24234;BME280;12365;43.554;1.388;2023-12-20T00:36:00;100950.06;;;9.78;65.00
24234;BME280;12365;43.554;1.388;2023-12-20T00:38:25;100952.06;;;9.82;64.72
24234;BME280;12365;43.554;1.388;2023-12-20T00:40:50;100954.81;;;9.84;64.97
24234;BME280;12365;43.554;1.388;2023-12-20T00:43:16;100942.88;;;9.87;64.61
24234;BME280;12365;43.554;1.388;2023-12-20T00:45:41;100931.88;;;9.91;64.47
24234;BME280;12365;43.554;1.388;2023-12-20T00:48:07;100924.94;;;9.92;64.66
24234;BME280;12365;43.554;1.388;2023-12-20T00:50:32;100924.19;;;9.93;64.42
24234;BME280;12365;43.554;1.388;2023-12-20T00:52:57;100925.06;;;9.93;64.53
24234;BME280;12365;43.554;1.388;2023-12-20T00:55:23;100918.16;;;9.94;64.55
24234;BME280;12365;43.554;1.388;2023-12-20T00:57:48;100913.84;;;9.94;64.65
24234;BME280;12365;43.554;1.388;2023-12-20T01:00:14;100912.13;;;9.95;64.65
24234;BME280;12365;43.554;1.388;2023-12-20T01:02:39;100913.84;;;9.94;64.69
24234;BME280;12365;43.554;1.388;2023-12-20T01:05:05;100922.78;;;9.98;64.36
24234;BME280;12365;43.554;1.388;2023-12-20T01:07:32;100916.63;;;9.97;64.62
24234;BME280;12365;43.554;1.388;2023-12-20T01:09:57;100904.41;;;9.96;64.29
24234;BME280;12365;43.554;1.388;2023-12-20T01:12:23;100902.81;;;9.98;64.83
24234;BME280;12365;43.554;1.388;2023-12-20T01:14:48;100904.41;;;9.96;64.61
24234;BME280;12365;43.554;1.388;2023-12-20T01:17:14;100906.22;;;9.97;64.80
24234;BME280;12365;43.554;1.388;2023-12-20T01:19:39;100903.59;;;9.97;64.83
24234;BME280;12365;43.554;1.388;2023-12-20T01:22:04;100901.94;;;9.98;64.48
24234;BME280;12365;43.554;1.388;2023-12-20T01:24:30;100899.31;;;9.98;64.71
24234;BME280;12365;43.554;1.388;2023-12-20T01:26:55;100899.31;;;9.98;64.46
24234;BME280;12365;43.554;1.388;2023-12-20T01:29:20;100893.31;;;9.99;64.88
24234;BME280;12365;43.554;1.388;2023-12-20T01:31:46;100895.09;;;10.00;64.84
24234;BME280;12365;43.554;1.388;2023-12-20T01:34:12;100896.03;;;10.01;64.96
24234;BME280;12365;43.554;1.388;2023-12-20T01:36:37;100887.19;;;9.98;64.58
24234;BME280;12365;43.554;1.388;2023-12-20T01:39:02;100893.41;;;10.01;64.65
24234;BME280;12365;43.554;1.388;2023-12-20T01:41:28;100886.50;;;10.01;64.74
24234;BME280;12365;43.554;1.388;2023-12-20T01:43:53;100885.78;;;10.04;64.55
24234;BME280;12365;43.554;1.388;2023-12-20T01:46:20;100883.19;;;10.04;64.83
24234;BME280;12365;43.554;1.388;2023-12-20T01:48:46;100882.38;;;10.05;64.68
24234;BME280;12365;43.554;1.388;2023-12-20T01:51:12;100877.16;;;10.05;64.65
24234;BME280;12365;43.554;1.388;2023-12-20T01:53:38;100873.78;;;10.06;64.82
24234;BME280;12365;43.554;1.388;2023-12-20T01:56:05;100879.06;;;10.07;64.63
24234;BME280;12365;43.554;1.388;2023-12-20T01:58:30;100870.34;;;10.07;64.63
24234;BME280;12365;43.554;1.388;2023-12-20T02:00:56;100868.66;;;10.07;64.61
24234;BME280;12365;43.554;1.388;2023-12-20T02:03:22;100859.16;;;10.08;65.00
24234;BME280;12365;43.554;1.388;2023-12-20T02:05:48;100860.13;;;10.10;64.96
24234;BME280;12365;43.554;1.388;2023-12-20T02:08:13;100840.88;;;10.08;64.81
24234;BME280;12365;43.554;1.388;2023-12-20T02:10:39;100853.22;;;10.10;64.63
24234;BME280;12365;43.554;1.388;2023-12-20T02:13:06;100845.28;;;10.09;64.80
24234;BME280;12365;43.554;1.388;2023-12-20T02:15:31;100840.19;;;10.10;64.72
24234;BME280;12365;43.554;1.388;2023-12-20T02:17:57;100840.28;;;10.12;64.88
24234;BME280;12365;43.554;1.388;2023-12-20T02:20:22;100828.13;;;10.12;64.76
24234;BME280;12365;43.554;1.388;2023-12-20T02:22:47;100829.97;;;10.13;64.83
24234;BME280;12365;43.554;1.388;2023-12-20T02:25:13;100822.22;;;10.15;65.09
24234;BME280;12365;43.554;1.388;2023-12-20T02:27:39;100822.22;;;10.15;64.81
24234;BME280;12365;43.554;1.388;2023-12-20T02:30:05;100817.00;;;10.15;64.84
24234;BME280;12365;43.554;1.388;2023-12-20T02:32:31;100811.78;;;10.15;64.73
24234;BME280;12365;43.554;1.388;2023-12-20T02:34:57;100811.78;;;10.15;64.67
24234;BME280;12365;43.554;1.388;2023-12-20T02:37:23;100812.72;;;10.15;64.94
24234;BME280;12365;43.554;1.388;2023-12-20T02:39:48;100810.19;;;10.17;64.94
24234;BME280;12365;43.554;1.388;2023-12-20T02:42:14;100812.03;;;10.18;64.69
24234;BME280;12365;43.554;1.388;2023-12-20T02:44:39;100808.59;;;10.19;64.87
24234;BME280;12365;43.554;1.388;2023-12-20T02:47:04;100813.94;;;10.20;64.84
24234;BME280;12365;43.554;1.388;2023-12-20T02:49:30;100806.09;;;10.20;65.10
24234;BME280;12365;43.554;1.388;2023-12-20T02:51:55;100806.19;;;10.22;64.86
24234;BME280;12365;43.554;1.388;2023-12-20T02:54:20;100796.66;;;10.23;64.68
24234;BME280;12365;43.554;1.388;2023-12-20T02:56:46;100789.75;;;10.23;64.87
24234;BME280;12365;43.554;1.388;2023-12-20T02:59:12;100778.50;;;10.24;65.09
24234;BME280;12365;43.554;1.388;2023-12-20T03:01:46;100779.41;;;10.25;64.98
24234;BME280;12365;43.554;1.388;2023-12-20T03:04:12;100768.88;;;10.23;64.96
24234;BME280;12365;43.554;1.388;2023-12-20T03:06:38;100771.56;;;10.25;64.88
24234;BME280;12365;43.554;1.388;2023-12-20T03:09:03;100768.88;;;10.23;64.90
24234;BME280;12365;43.554;1.388;2023-12-20T03:11:29;100777.50;;;10.22;65.02
24234;BME280;12365;43.554;1.388;2023-12-20T03:13:55;100763.44;;;10.20;64.70
24234;BME280;12365;43.554;1.388;2023-12-20T03:16:21;100758.22;;;10.20;65.05
24234;BME280;12365;43.554;1.388;2023-12-20T03:18:46;100756.44;;;10.19;65.05
24234;BME280;12365;43.554;1.388;2023-12-20T03:21:12;100760.84;;;10.20;64.88
24234;BME280;12365;43.554;1.388;2023-12-20T03:23:37;100759.94;;;10.19;65.02
24234;BME280;12365;43.554;1.388;2023-12-20T03:26:03;100757.25;;;10.18;64.98
24234;BME280;12365;43.554;1.388;2023-12-20T03:28:29;100755.44;;;10.17;65.36
24234;BME280;12365;43.554;1.388;2023-12-20T03:30:54;100753.63;;;10.16;65.17
24234;BME280;12365;43.554;1.388;2023-12-20T03:33:20;100745.81;;;10.16;65.59
24234;BME280;12365;43.554;1.388;2023-12-20T03:35:45;100749.22;;;10.15;65.30
24234;BME280;12365;43.554;1.388;2023-12-20T03:38:10;100749.22;;;10.15;65.37
24234;BME280;12365;43.554;1.388;2023-12-20T03:40:36;100755.25;;;10.14;65.42
24234;BME280;12365;43.554;1.388;2023-12-20T03:43:01;100750.84;;;10.13;65.51
24234;BME280;12365;43.554;1.388;2023-12-20T03:45:27;100750.84;;;10.13;65.67
24234;BME280;12365;43.554;1.388;2023-12-20T03:47:52;100751.63;;;10.12;65.46
24234;BME280;12365;43.554;1.388;2023-12-20T03:50:22;100755.03;;;10.11;65.35
24234;BME280;12365;43.554;1.388;2023-12-20T03:52:48;100746.41;;;10.12;65.49
24234;BME280;12365;43.554;1.388;2023-12-20T03:55:13;100753.22;;;10.10;65.54
24234;BME280;12365;43.554;1.388;2023-12-20T03:57:39;100744.63;;;10.11;65.51
24234;BME280;12365;43.554;1.388;2023-12-20T04:00:05;100736.78;;;10.11;65.76
24234;BME280;12365;43.554;1.388;2023-12-20T04:02:34;100735.91;;;10.10;65.56
24234;BME280;12365;43.554;1.388;2023-12-20T04:04:59;100735.91;;;10.10;65.75
24234;BME280;12365;43.554;1.388;2023-12-20T04:07:25;100726.38;;;10.11;65.74
24234;BME280;12365;43.554;1.388;2023-12-20T04:09:50;100733.38;;;10.12;65.90
24234;BME280;12365;43.554;1.388;2023-12-20T04:12:16;100728.16;;;10.12;65.58
24234;BME280;12365;43.554;1.388;2023-12-20T04:14:41;100722.16;;;10.13;65.86
24234;BME280;12365;43.554;1.388;2023-12-20T04:17:06;100719.56;;;10.13;65.71
24234;BME280;12365;43.554;1.388;2023-12-20T04:19:32;100721.34;;;10.14;65.98
24234;BME280;12365;43.554;1.388;2023-12-20T04:21:57;100723.94;;;10.14;65.84
24234;BME280;12365;43.554;1.388;2023-12-20T04:24:22;100715.31;;;10.15;65.90
24234;BME280;12365;43.554;1.388;2023-12-20T04:26:48;100711.09;;;10.17;65.96
24234;BME280;12365;43.554;1.388;2023-12-20T04:29:13;100708.50;;;10.17;65.92
24234;BME280;12365;43.554;1.388;2023-12-20T04:31:39;100708.50;;;10.17;65.99
24234;BME280;12365;43.554;1.388;2023-12-20T04:34:04;100708.50;;;10.17;65.82
24234;BME280;12365;43.554;1.388;2023-12-20T04:36:29;100712.94;;;10.18;66.13
24234;BME280;12365;43.554;1.388;2023-12-20T04:38:55;100707.72;;;10.18;66.29
24234;BME280;12365;43.554;1.388;2023-12-20T04:41:20;100710.41;;;10.19;66.10
24234;BME280;12365;43.554;1.388;2023-12-20T04:43:46;100700.88;;;10.20;66.27
24234;BME280;12365;43.554;1.388;2023-12-20T04:46:11;100695.75;;;10.22;66.10
24234;BME280;12365;43.554;1.388;2023-12-20T04:48:36;100689.94;;;10.26;66.27
24234;BME280;12365;43.554;1.388;2023-12-20T04:51:02;100699.91;;;10.31;66.50
24234;BME280;12365;43.554;1.388;2023-12-20T04:53:27;100693.44;;;10.39;66.08
24234;BME280;12365;43.554;1.388;2023-12-20T04:55:53;100687.53;;;10.42;66.34
24234;BME280;12365;43.554;1.388;2023-12-20T04:58:18;100685.09;;;10.45;66.23
24234;BME280;12365;43.554;1.388;2023-12-20T05:00:44;100685.41;;;10.50;66.21
24234;BME280;12365;43.554;1.388;2023-12-20T05:03:09;100684.69;;;10.52;66.19
24234;BME280;12365;43.554;1.388;2023-12-20T05:05:34;100686.69;;;10.56;66.28
24234;BME280;12365;43.554;1.388;2023-12-20T05:08:00;100682.56;;;10.60;66.45
24234;BME280;12365;43.554;1.388;2023-12-20T05:10:25;100685.34;;;10.63;66.55
24234;BME280;12365;43.554;1.388;2023-12-20T05:12:52;100686.28;;;10.63;66.41
24234;BME280;12365;43.554;1.388;2023-12-20T05:15:17;100689.84;;;10.66;66.80
24234;BME280;12365;43.554;1.388;2023-12-20T05:17:42;100696.19;;;10.69;66.73
24234;BME280;12365;43.554;1.388;2023-12-20T05:20:08;100693.66;;;10.71;66.71
24234;BME280;12365;43.554;1.388;2023-12-20T05:22:33;100688.53;;;10.72;66.86
24234;BME280;12365;43.554;1.388;2023-12-20T05:24:59;100696.56;;;10.75;66.64
24234;BME280;12365;43.554;1.388;2023-12-20T05:27:24;100697.75;;;10.80;66.89
24234;BME280;12365;43.554;1.388;2023-12-20T05:29:49;100695.41;;;10.85;67.12
24234;BME280;12365;43.554;1.388;2023-12-20T05:32:15;100701.94;;;10.92;66.92
24234;BME280;12365;43.554;1.388;2023-12-20T05:34:41;100709.13;;;10.96;67.38
24234;BME280;12365;43.554;1.388;2023-12-20T05:37:06;100708.81;;;11.04;67.32
24234;BME280;12365;43.554;1.388;2023-12-20T05:39:31;100705.66;;;11.10;67.24
24234;BME280;12365;43.554;1.388;2023-12-20T05:41:57;100698.00;;;11.13;67.28
24234;BME280;12365;43.554;1.388;2023-12-20T05:44:22;100701.72;;;11.17;67.14
24234;BME280;12365;43.554;1.388;2023-12-20T05:46:47;100705.84;;;11.13;67.48
24234;BME280;12365;43.554;1.388;2023-12-20T05:49:13;100711.88;;;11.12;67.61
24234;BME280;12365;43.554;1.388;2023-12-20T05:51:39;100714.56;;;11.14;67.67
24234;BME280;12365;43.554;1.388;2023-12-20T05:54:04;100720.06;;;11.18;67.86
24234;BME280;12365;43.554;1.388;2023-12-20T05:56:29;100723.69;;;11.20;67.78
24234;BME280;12365;43.554;1.388;2023-12-20T05:58:55;100724.56;;;11.21;67.93
24234;BME280;12365;43.554;1.388;2023-12-20T06:01:20;100732.59;;;11.24;68.04
24234;BME280;12365;43.554;1.388;2023-12-20T06:03:45;100728.28;;;11.24;67.71
24234;BME280;12365;43.554;1.388;2023-12-20T06:06:11;100729.25;;;11.26;68.09
24234;BME280;12365;43.554;1.388;2023-12-20T06:08:38;100732.09;;;11.30;68.08
24234;BME280;12365;43.554;1.388;2023-12-20T06:11:03;100751.34;;;11.32;68.17
24234;BME280;12365;43.554;1.388;2023-12-20T06:13:28;100751.63;;;11.36;68.07
24234;BME280;12365;43.554;1.388;2023-12-20T06:15:54;100742.06;;;11.37;68.08
24234;BME280;12365;43.554;1.388;2023-12-20T06:18:20;100756.25;;;11.40;68.14
24234;BME280;12365;43.554;1.388;2023-12-20T06:20:46;100752.91;;;11.43;68.30
24234;BME280;12365;43.554;1.388;2023-12-20T06:23:11;100760.84;;;11.44;68.38
24234;BME280;12365;43.554;1.388;2023-12-20T06:25:36;100774.81;;;11.45;68.41
24234;BME280;12365;43.554;1.388;2023-12-20T06:28:02;100770.66;;;11.48;68.49
24234;BME280;12365;43.554;1.388;2023-12-20T06:30:27;100769.16;;;11.52;68.34
24234;BME280;12365;43.554;1.388;2023-12-20T06:32:54;100773.56;;;11.53;68.63
24234;BME280;12365;43.554;1.388;2023-12-20T06:35:20;100777.16;;;11.55;68.69
24234;BME280;12365;43.554;1.388;2023-12-20T06:37:45;100780.78;;;11.57;68.59
24234;BME280;12365;43.554;1.388;2023-12-20T06:40:11;100794.81;;;11.59;68.69
24234;BME280;12365;43.554;1.388;2023-12-20T06:42:36;100800.25;;;11.62;68.66
24234;BME280;12365;43.554;1.388;2023-12-20T06:45:02;100803.84;;;11.64;68.75
24234;BME280;12365;43.554;1.388;2023-12-20T06:47:28;100804.03;;;11.67;68.92
24234;BME280;12365;43.554;1.388;2023-12-20T06:49:53;100812.84;;;11.69;68.71
24234;BME280;12365;43.554;1.388;2023-12-20T06:52:19;100809.44;;;11.70;68.96
24234;BME280;12365;43.554;1.388;2023-12-20T06:54:44;100819.19;;;11.73;68.93
24234;BME280;12365;43.554;1.388;2023-12-20T06:57:09;100820.25;;;11.77;69.19
24234;BME280;12365;43.554;1.388;2023-12-20T06:59:39;100830.00;;;11.79;69.18
24234;BME280;12365;43.554;1.388;2023-12-20T07:02:05;100830.19;;;11.82;69.02
24234;BME280;12365;43.554;1.388;2023-12-20T07:04:30;100837.22;;;11.83;69.19
24234;BME280;12365;43.554;1.388;2023-12-20T07:06:56;100835.63;;;11.85;69.19
24234;BME280;12365;43.554;1.388;2023-12-20T07:09:22;100843.56;;;11.87;69.19
24234;BME280;12365;43.554;1.388;2023-12-20T07:11:48;100853.31;;;11.89;69.29
24234;BME280;12365;43.554;1.388;2023-12-20T07:14:14;100845.47;;;11.89;69.26
24234;BME280;12365;43.554;1.388;2023-12-20T07:16:39;100869.91;;;11.90;69.65
24234;BME280;12365;43.554;1.388;2023-12-20T07:19:05;100873.63;;;11.93;69.60
24234;BME280;12365;43.554;1.388;2023-12-20T07:21:31;100877.13;;;11.94;69.50
24234;BME280;12365;43.554;1.388;2023-12-20T07:23:56;100881.47;;;11.93;69.61
24234;BME280;12365;43.554;1.388;2023-12-20T07:26:22;100886.59;;;11.92;69.68
24234;BME280;12365;43.554;1.388;2023-12-20T07:28:48;100884.69;;;11.89;69.81
24234;BME280;12365;43.554;1.388;2023-12-20T07:31:15;100892.47;;;11.88;69.62
24234;BME280;12365;43.554;1.388;2023-12-20T07:33:41;100899.28;;;11.86;69.86
24234;BME280;12365;43.554;1.388;2023-12-20T07:36:06;100903.50;;;11.84;69.76
24234;BME280;12365;43.554;1.388;2023-12-20T07:38:32;100901.59;;;11.81;69.92
24234;BME280;12365;43.554;1.388;2023-12-20T07:40:58;100904.94;;;11.79;70.15
24234;BME280;12365;43.554;1.388;2023-12-20T07:43:23;100918.91;;;11.79;70.08
24234;BME280;12365;43.554;1.388;2023-12-20T07:45:48;100930.06;;;11.77;69.90
24234;BME280;12365;43.554;1.388;2023-12-20T07:48:14;100934.41;;;11.76;69.97
24234;BME280;12365;43.554;1.388;2023-12-20T07:50:39;100942.13;;;11.75;69.87
24234;BME280;12365;43.554;1.388;2023-12-20T07:53:04;100954.25;;;11.73;70.13
24234;BME280;12365;43.554;1.388;2023-12-20T07:55:30;100962.88;;;11.71;70.02
24234;BME280;12365;43.554;1.388;2023-12-20T07:57:56;100954.03;;;11.69;69.99
24234;BME280;12365;43.554;1.388;2023-12-20T08:00:21;100966.31;;;11.70;69.95
24234;BME280;12365;43.554;1.388;2023-12-20T08:02:47;100965.31;;;11.68;69.91
24234;BME280;12365;43.554;1.388;2023-12-20T08:05:12;100977.47;;;11.68;69.89
24234;BME280;12365;43.554;1.388;2023-12-20T08:07:38;100980.63;;;11.62;69.87
24234;BME280;12365;43.554;1.388;2023-12-20T08:10:04;100990.25;;;11.63;69.93
24234;BME280;12365;43.554;1.388;2023-12-20T08:12:30;101006.75;;;11.62;69.77
24234;BME280;12365;43.554;1.388;2023-12-20T08:14:55;100997.78;;;11.59;69.88
24234;BME280;12365;43.554;1.388;2023-12-20T08:17:22;101007.34;;;11.58;69.93
24234;BME280;12365;43.554;1.388;2023-12-20T08:19:48;101017.69;;;11.57;69.80
24234;BME280;12365;43.554;1.388;2023-12-20T08:22:14;101035.81;;;11.54;69.94
24234;BME280;12365;43.554;1.388;2023-12-20T08:24:39;101026.25;;;11.54;69.84
24234;BME280;12365;43.554;1.388;2023-12-20T08:27:05;101028.06;;;11.55;69.68
24234;BME280;12365;43.554;1.388;2023-12-20T08:29:30;101031.47;;;11.54;69.59
24234;BME280;12365;43.554;1.388;2023-12-20T08:31:56;101041.03;;;11.54;69.85
24234;BME280;12365;43.554;1.388;2023-12-20T08:34:22;101048.97;;;11.55;69.50
24234;BME280;12365;43.554;1.388;2023-12-20T08:36:47;101051.59;;;11.55;69.59
24234;BME280;12365;43.554;1.388;2023-12-20T08:39:12;101055.94;;;11.55;69.47
24234;BME280;12365;43.554;1.388;2023-12-20T08:41:38;101069.91;;;11.55;69.56
24234;BME280;12365;43.554;1.388;2023-12-20T08:44:03;101069.00;;;11.55;69.61
24234;BME280;12365;43.554;1.388;2023-12-20T08:46:29;101077.63;;;11.54;69.64
24234;BME280;12365;43.554;1.388;2023-12-20T08:48:55;101078.53;;;11.54;69.57
24234;BME280;12365;43.554;1.388;2023-12-20T08:51:20;101081.94;;;11.53;69.55
24234;BME280;12365;43.554;1.388;2023-12-20T08:53:48;101092.41;;;11.53;69.35
24234;BME280;12365;43.554;1.388;2023-12-20T08:56:14;101088.97;;;11.54;69.31
24234;BME280;12365;43.554;1.388;2023-12-20T08:58:40;101103.06;;;11.56;69.26
24234;BME280;12365;43.554;1.388;2023-12-20T09:01:05;101106.50;;;11.55;69.42
24234;BME280;12365;43.554;1.388;2023-12-20T09:03:30;101106.56;;;11.57;69.34
24234;BME280;12365;43.554;1.388;2023-12-20T09:05:56;101114.41;;;11.57;69.38
24234;BME280;12365;43.554;1.388;2023-12-20T09:08:21;101113.63;;;11.58;69.12
24234;BME280;12365;43.554;1.388;2023-12-20T09:10:47;101117.13;;;11.58;69.29
24234;BME280;12365;43.554;1.388;2023-12-20T09:13:12;101129.63;;;11.62;69.12
24234;BME280;12365;43.554;1.388;2023-12-20T09:15:38;101127.09;;;11.64;69.24
24234;BME280;12365;43.554;1.388;2023-12-20T09:18:03;101132.41;;;11.65;69.05
24234;BME280;12365;43.554;1.388;2023-12-20T09:20:28;101149.31;;;11.70;69.10
24234;BME280;12365;43.554;1.388;2023-12-20T09:22:54;101145.19;;;11.74;69.20
24234;BME280;12365;43.554;1.388;2023-12-20T09:25:19;101149.69;;;11.77;68.92
24234;BME280;12365;43.554;1.388;2023-12-20T09:27:44;101162.97;;;11.80;69.09
24234;BME280;12365;43.554;1.388;2023-12-20T09:30:10;101163.97;;;11.82;68.83
24234;BME280;12365;43.554;1.388;2023-12-20T09:32:35;101167.59;;;11.84;68.87
24234;BME280;12365;43.554;1.388;2023-12-20T09:35:02;101170.34;;;11.85;68.69
24234;BME280;12365;43.554;1.388;2023-12-20T09:37:28;101180.91;;;11.87;68.88
24234;BME280;12365;43.554;1.388;2023-12-20T09:39:54;101177.50;;;11.88;68.78
24234;BME280;12365;43.554;1.388;2023-12-20T09:42:39;101178.47;;;11.90;68.87
24234;BME280;12365;43.554;1.388;2023-12-20T09:45:08;101176.88;;;11.92;68.72
24234;BME280;12365;43.554;1.388;2023-12-20T09:47:35;101184.84;;;11.93;68.58
24234;BME280;12365;43.554;1.388;2023-12-20T09:50:02;101184.84;;;11.93;68.42
24234;BME280;12365;43.554;1.388;2023-12-20T09:52:28;101181.53;;;11.96;68.70
24234;BME280;12365;43.554;1.388;2023-12-20T09:54:55;101176.28;;;11.96;68.35
24234;BME280;12365;43.554;1.388;2023-12-20T09:57:22;101176.28;;;11.96;68.37
24234;BME280;12365;43.554;1.388;2023-12-20T09:59:47;101179.09;;;11.99;68.41
24234;BME280;12365;43.554;1.388;2023-12-20T10:02:13;101180.94;;;12.00;68.11
24234;BME280;12365;43.554;1.388;2023-12-20T10:04:47;101188.66;;;11.99;68.09
24234;BME280;12365;43.554;1.388;2023-12-20T10:07:15;101197.53;;;12.01;68.07
24234;BME280;12365;43.554;1.388;2023-12-20T10:09:41;101194.19;;;12.03;68.02
24234;BME280;12365;43.554;1.388;2023-12-20T10:12:07;101194.28;;;12.05;68.03
24234;BME280;12365;43.554;1.388;2023-12-20T10:14:32;101200.44;;;12.05;67.94
24234;BME280;12365;43.554;1.388;2023-12-20T10:17:05;101199.81;;;12.09;67.92
24234;BME280;12365;43.554;1.388;2023-12-20T10:19:31;101193.88;;;12.12;67.99
24234;BME280;12365;43.554;1.388;2023-12-20T10:22:00;101189.13;;;12.20;67.77
24234;BME280;12365;43.554;1.388;2023-12-20T10:24:28;101187.72;;;12.25;67.66
24234;BME280;12365;43.554;1.388;2023-12-20T10:27:02;101194.97;;;12.29;67.67
24234;BME280;12365;43.554;1.388;2023-12-20T10:29:34;101187.19;;;12.30;67.45
24234;BME280;12365;43.554;1.388;2023-12-20T10:32:27;101195.34;;;12.35;67.48
24234;BME280;12365;43.554;1.388;2023-12-20T10:34:53;101189.50;;;12.39;67.28
24234;BME280;12365;43.554;1.388;2023-12-20T10:37:19;101190.88;;;12.47;67.10
24234;BME280;12365;43.554;1.388;2023-12-20T10:39:49;101187.84;;;12.54;67.24
24234;BME280;12365;43.554;1.388;2023-12-20T10:42:15;101190.41;;;12.68;66.95
24234;BME280;12365;43.554;1.388;2023-12-20T10:44:42;101186.66;;;12.77;66.79
24234;BME280;12365;43.554;1.388;2023-12-20T10:47:09;101183.44;;;12.82;66.51
24234;BME280;12365;43.554;1.388;2023-12-20T10:49:36;101171.31;;;12.84;66.44
24234;BME280;12365;43.554;1.388;2023-12-20T10:52:03;101167.28;;;12.89;66.34
24234;BME280;12365;43.554;1.388;2023-12-20T10:54:30;101168.84;;;13.00;66.34
24234;BME280;12365;43.554;1.388;2023-12-20T10:56:57;101170.13;;;13.07;66.27
24234;BME280;12365;43.554;1.388;2023-12-20T10:59:24;101167.50;;;13.07;66.00
24234;BME280;12365;43.554;1.388;2023-12-20T11:01:50;101170.13;;;13.07;65.96
24234;BME280;12365;43.554;1.388;2023-12-20T11:04:23;101174.34;;;13.05;65.89
24234;BME280;12365;43.554;1.388;2023-12-20T11:06:54;101169.91;;;13.04;65.76
24234;BME280;12365;43.554;1.388;2023-12-20T11:09:28;101165.38;;;13.01;65.88
24234;BME280;12365;43.554;1.388;2023-12-20T11:12:34;101168.41;;;13.07;65.45
24234;BME280;12365;43.554;1.388;2023-12-20T11:14:53;101152.25;;;13.14;65.14
24234;BME280;12365;43.554;1.388;2023-12-20T11:17:20;101164.06;;;13.22;64.98
24234;BME280;12365;43.554;1.388;2023-12-20T11:22:17;101156.44;;;13.40;64.24
24234;BME280;12365;43.554;1.388;2023-12-20T11:24:44;101154.06;;;13.45;64.23
24234;BME280;12365;43.554;1.388;2023-12-20T11:27:12;101158.59;;;13.48;63.46
24234;BME280;12365;43.554;1.388;2023-12-20T11:29:38;101155.88;;;13.46;63.26
24234;BME280;12365;43.554;1.388;2023-12-20T11:37:40;101148.72;;;13.73;62.28
24234;BME280;12365;43.554;1.388;2023-12-20T11:40:13;101142.47;;;13.71;62.04
24234;BME280;12365;43.554;1.388;2023-12-20T11:42:40;101144.09;;;13.69;61.96
24234;BME280;12365;43.554;1.388;2023-12-20T11:45:19;101130.19;;;13.70;61.74
24234;BME280;12365;43.554;1.388;2023-12-20T11:47:47;101133.59;;;13.69;61.14
24234;BME280;12365;43.554;1.388;2023-12-20T11:50:15;101123.94;;;13.68;61.13
24234;BME280;12365;43.554;1.388;2023-12-20T11:52:41;101136.34;;;13.56;60.81
24234;BME280;12365;43.554;1.388;2023-12-20T11:55:06;101134.19;;;13.34;60.79
24234;BME280;12365;43.554;1.388;2023-12-20T11:57:33;101140.81;;;13.14;60.95
24234;BME280;12365;43.554;1.388;2023-12-20T11:59:58;101139.91;;;12.98;61.12
24234;BME280;12365;43.554;1.388;2023-12-20T12:02:24;101134.84;;;12.87;60.91
24234;BME280;12365;43.554;1.388;2023-12-20T12:04:50;101130.34;;;12.84;60.83
24234;BME280;12365;43.554;1.388;2023-12-20T12:07:18;101120.94;;;13.02;60.49
24234;BME280;12365;43.554;1.388;2023-12-20T12:09:44;101121.31;;;13.09;60.02
24234;BME280;12365;43.554;1.388;2023-12-20T12:12:10;101124.41;;;13.01;59.31
24234;BME280;12365;43.554;1.388;2023-12-20T12:14:37;101126.94;;;13.15;59.00
24234;BME280;12365;43.554;1.388;2023-12-20T12:17:03;101129.00;;;13.20;57.71
24234;BME280;12365;43.554;1.388;2023-12-20T12:19:29;101134.25;;;13.20;57.26
24234;BME280;12365;43.554;1.388;2023-12-20T12:22:07;101115.94;;;13.35;57.10
24234;BME280;12365;43.554;1.388;2023-12-20T12:24:34;101122.97;;;13.51;57.05
24234;BME280;12365;43.554;1.388;2023-12-20T12:27:00;101113.91;;;13.61;56.57
24234;BME280;12365;43.554;1.388;2023-12-20T12:29:25;101129.34;;;13.71;56.12
24234;BME280;12365;43.554;1.388;2023-12-20T12:31:51;101122.53;;;13.75;55.91
24234;BME280;12365;43.554;1.388;2023-12-20T12:34:17;101129.78;;;13.79;55.62
24234;BME280;12365;43.554;1.388;2023-12-20T12:36:43;101131.94;;;13.86;55.71
24234;BME280;12365;43.554;1.388;2023-12-20T12:39:09;101132.84;;;13.86;55.21
24234;BME280;12365;43.554;1.388;2023-12-20T12:41:34;101151.31;;;13.88;55.25
24234;BME280;12365;43.554;1.388;2023-12-20T12:44:00;101137.09;;;13.84;55.12
24234;BME280;12365;43.554;1.388;2023-12-20T12:46:25;101140.09;;;13.91;55.22
24234;BME280;12365;43.554;1.388;2023-12-20T12:48:51;101130.09;;;14.00;55.11
24234;BME280;12365;43.554;1.388;2023-12-20T12:51:16;101137.59;;;14.08;54.88
24234;BME280;12365;43.554;1.388;2023-12-20T12:53:42;101141.66;;;14.03;54.52